Time;durP1;ratioP1;P1;durP2;ratioP2;P2;SDS_P1;SDS_P2;PMS_P1;PMS_P2;Temp;Humidity;BMP_temperature;BMP_pressure;BME280_temperature;BME280_humidity;BME280_pressure;Samples;Min_cycle;Max_cycle;Signal;HPM_P1;HPM_P2
2023/01/14 00:01:35;;;;;;;2.67;0.95;;;11.50;90.10;;;;;;5073375;28;20063;-80
2023/01/14 00:04:01;;;;;;;2.72;0.98;;;11.40;90.10;;;;;;5073059;28;20043;-78
2023/01/14 00:06:32;;;;;;;2.58;0.90;;;11.50;90.10;;;;;;5072184;28;20052;-78
2023/01/14 00:09:04;;;;;;;4.45;1.15;;;11.50;90.10;;;;;;5071972;28;20044;-78
2023/01/14 00:14:19;;;;;;;2.60;0.88;;;11.50;90.10;;;;;;5076574;28;20047;-82
2023/01/14 00:16:45;;;;;;;3.67;1.00;;;11.50;90.10;;;;;;5073286;28;20020;-80
2023/01/14 00:19:11;;;;;;;2.90;0.88;;;11.50;90.10;;;;;;5071534;28;20263;-79
2023/01/14 00:21:37;;;;;;;2.97;1.00;;;11.40;90.10;;;;;;5073717;28;20052;-80
2023/01/14 00:24:03;;;;;;;3.53;1.20;;;11.40;90.10;;;;;;5073504;28;20016;-82
2023/01/14 00:26:28;;;;;;;2.60;1.00;;;11.40;90.10;;;;;;5078129;28;20105;-82
2023/01/14 00:28:54;;;;;;;3.33;0.90;;;11.50;90.10;;;;;;5079672;28;20025;-80
2023/01/14 00:31:22;;;;;;;3.78;1.10;;;11.40;90.10;;;;;;5077784;28;20028;-80
2023/01/14 00:33:48;;;;;;;2.95;1.02;;;11.40;90.10;;;;;;5078136;28;20448;-80
2023/01/14 00:36:16;;;;;;;3.78;1.50;;;11.50;90.10;;;;;;5079775;28;20088;-79
2023/01/14 00:38:43;;;;;;;1.63;0.70;;;11.50;90.10;;;;;;5077243;28;20029;-80
2023/01/14 00:41:14;;;;;;;3.13;1.13;;;11.50;90.10;;;;;;5077420;28;20025;-80
2023/01/14 00:43:42;;;;;;;2.55;0.88;;;11.40;90.10;;;;;;5076706;28;20464;-80
2023/01/14 00:46:13;;;;;;;2.08;0.80;;;11.40;90.10;;;;;;5076920;28;20039;-81
2023/01/14 00:48:39;;;;;;;2.08;0.80;;;11.50;90.10;;;;;;5075122;28;20115;-80
2023/01/14 00:51:05;;;;;;;2.20;1.00;;;11.50;90.10;;;;;;5076896;28;20424;-80
2023/01/14 00:53:31;;;;;;;2.72;0.90;;;11.40;90.10;;;;;;5081293;28;20020;-79
2023/01/14 00:55:57;;;;;;;3.40;1.10;;;11.40;90.10;;;;;;5076543;28;20127;-81
2023/01/14 00:58:22;;;;;;;2.67;0.95;;;11.50;90.10;;;;;;5076015;28;20024;-81
2023/01/14 01:00:48;;;;;;;3.40;1.25;;;11.50;90.10;;;;;;5074870;28;20055;-78
2023/01/14 01:03:14;;;;;;;2.60;0.90;;;11.40;90.10;;;;;;5074712;28;20016;-80
2023/01/14 01:05:41;;;;;;;3.58;1.00;;;11.40;90.10;;;;;;5076066;28;20021;-80
2023/01/14 01:08:09;;;;;;;2.45;0.90;;;11.50;90.10;;;;;;5076516;28;20667;-80
2023/01/14 01:10:35;;;;;;;2.80;1.02;;;11.40;90.10;;;;;;5074786;28;20052;-81
2023/01/14 01:13:02;;;;;;;3.17;1.42;;;11.40;90.10;;;;;;5075677;28;20020;-81
2023/01/14 01:15:31;;;;;;;3.00;0.90;;;11.40;90.10;;;;;;5075125;28;20484;-80
2023/01/14 01:17:56;;;;;;;3.90;0.90;;;11.40;90.10;;;;;;5074347;28;20035;-80
2023/01/14 01:20:22;;;;;;;3.00;1.02;;;11.40;90.10;;;;;;5074429;28;20111;-80
2023/01/14 01:22:47;;;;;;;2.95;0.80;;;11.40;90.10;;;;;;5074055;28;20028;-81
2023/01/14 01:25:13;;;;;;;2.10;0.88;;;11.40;90.10;;;;;;5075710;28;20470;-80
2023/01/14 01:27:38;;;;;;;2.65;0.90;;;11.40;90.10;;;;;;5076227;28;20025;-80
2023/01/14 01:30:04;;;;;;;2.50;0.80;;;11.40;90.10;;;;;;5074972;28;20480;-81
2023/01/14 01:32:29;;;;;;;3.08;0.98;;;11.40;90.10;;;;;;5074624;28;20097;-80
2023/01/14 01:34:55;;;;;;;2.47;1.00;;;11.40;90.10;;;;;;5074811;28;20052;-80
2023/01/14 01:37:20;;;;;;;4.00;1.27;;;11.40;90.10;;;;;;5073948;28;20409;-80
2023/01/14 01:39:46;;;;;;;3.15;0.80;;;11.40;90.10;;;;;;5073663;28;20086;-80
2023/01/14 01:42:15;;;;;;;3.50;1.05;;;11.40;90.10;;;;;;5073624;28;20027;-80
2023/01/14 01:44:40;;;;;;;4.15;0.90;;;11.40;90.10;;;;;;5073561;28;20020;-80
2023/01/14 01:47:08;;;;;;;3.00;0.80;;;11.40;90.10;;;;;;5075082;28;20027;-80
2023/01/14 01:49:35;;;;;;;3.03;0.98;;;11.40;90.10;;;;;;5075876;28;20029;-80
2023/01/14 01:52:08;;;;;;;1.65;0.70;;;11.40;90.10;;;;;;5075833;28;20107;-80
2023/01/14 01:54:39;;;;;;;2.55;0.95;;;11.40;90.10;;;;;;5076715;28;20484;-82
2023/01/14 01:57:07;;;;;;;2.15;0.70;;;11.40;90.10;;;;;;5076222;28;20039;-81
2023/01/14 01:59:37;;;;;;;6.00;1.38;;;11.40;90.10;;;;;;5074631;28;20025;-79
2023/01/14 02:02:03;;;;;;;2.50;1.00;;;11.40;90.10;;;;;;5076325;28;20028;-81
2023/01/14 02:04:29;;;;;;;2.28;0.82;;;11.40;90.10;;;;;;5076190;28;20021;-81
2023/01/14 02:06:54;;;;;;;2.92;1.10;;;11.40;90.10;;;;;;5076375;28;20054;-80
2023/01/14 02:09:20;;;;;;;2.25;0.90;;;11.40;90.10;;;;;;5076037;28;20459;-81
2023/01/14 02:12:13;;;;;;;3.83;1.05;;;11.40;90.10;;;;;;5080738;28;20021;-82
2023/01/14 02:14:47;;;;;;;2.58;0.85;;;11.40;90.10;;;;;;5076719;28;20074;-81
2023/01/14 02:17:34;;;;;;;3.17;1.05;;;11.40;90.10;;;;;;5075362;28;20024;-80
2023/01/14 02:20:13;;;;;;;3.05;0.90;;;11.40;90.10;;;;;;5076910;28;20055;-80
2023/01/14 02:23:16;;;;;;;2.58;0.90;;;11.40;90.10;;;;;;5075473;28;20017;-82
2023/01/14 02:26:08;;;;;;;4.13;1.02;;;11.40;90.10;;;;;;5078772;28;20380;-80
2023/01/14 02:28:56;;;;;;;2.65;0.98;;;11.40;90.10;;;;;;5077734;28;20059;-80
2023/01/14 02:31:56;;;;;;;3.65;0.95;;;11.40;90.10;;;;;;5076855;28;20493;-81
2023/01/14 02:34:26;;;;;;;;;;;11.40;90.10;;;;;;5075038;28;20025;-80
2023/01/14 02:36:58;;;;;;;;;;;11.40;90.10;;;;;;5073849;28;19908;-79
2023/01/14 02:39:42;;;;;;;3.90;1.38;;;11.40;90.10;;;;;;5077288;28;19904;-82
2023/01/14 02:45:10;;;;;;;2.90;1.00;;;11.40;90.10;;;;;;5076752;28;20586;-82
2023/01/14 02:47:39;;;;;;;4.35;0.93;;;11.40;90.10;;;;;;5076329;28;20033;-80
2023/01/14 02:50:06;;;;;;;4.35;1.15;;;11.40;90.10;;;;;;5075441;28;20020;-81
2023/01/14 02:52:32;;;;;;;3.25;0.90;;;11.40;90.10;;;;;;5074643;28;20071;-80
2023/01/14 02:55:00;;;;;;;4.28;1.20;;;11.40;90.10;;;;;;5076617;28;20469;-82
2023/01/14 02:57:32;;;;;;;4.57;1.42;;;11.40;90.10;;;;;;5075191;28;20035;-81
2023/01/14 03:00:07;;;;;;;3.85;1.10;;;11.40;90.10;;;;;;5074723;28;20031;-80
2023/01/14 03:03:07;;;;;;;4.28;1.35;;;11.40;90.10;;;;;;5074107;28;20033;-82
2023/01/14 03:05:40;;;;;;;4.00;1.27;;;11.40;90.10;;;;;;5071126;28;20029;-82
2023/01/14 03:08:14;;;;;;;4.82;1.20;;;11.40;90.10;;;;;;5079610;28;20508;-82
2023/01/14 03:10:45;;;;;;;3.40;1.10;;;11.40;90.10;;;;;;5077339;28;20024;-81
2023/01/14 03:13:20;;;;;;;3.47;0.97;;;11.40;90.10;;;;;;5075206;28;20500;-80
2023/01/14 03:16:06;;;;;;;2.90;1.00;;;11.40;90.10;;;;;;5075242;28;20111;-81
2023/01/14 03:18:52;;;;;;;4.32;0.90;;;11.40;90.10;;;;;;5073742;28;20024;-81
2023/01/14 03:21:31;;;;;;;2.70;0.98;;;11.40;90.10;;;;;;5075097;28;20477;-78
2023/01/14 03:24:18;;;;;;;4.18;1.02;;;11.40;90.10;;;;;;5074620;28;20035;-81
2023/01/14 03:26:47;;;;;;;3.75;1.20;;;11.40;90.10;;;;;;5069751;28;20358;-79
2023/01/14 03:29:17;;;;;;;3.95;1.20;;;11.40;90.10;;;;;;5073148;28;20032;-79
2023/01/14 03:31:50;;;;;;;6.05;1.17;;;11.40;90.10;;;;;;5076257;28;20082;-80
2023/01/14 03:34:24;;;;;;;5.88;1.60;;;11.30;90.10;;;;;;5077304;28;20493;-82
2023/01/14 03:36:51;;;;;;;8.05;2.00;;;11.40;90.10;;;;;;5078255;28;20020;-80
2023/01/14 03:39:25;;;;;;;4.70;1.30;;;11.40;90.10;;;;;;5072917;28;20032;-80
2023/01/14 03:44:45;;;;;;;11.10;1.73;;;11.40;90.10;;;;;;5074177;28;20023;-80
2023/01/14 03:47:12;;;;;;;4.10;1.30;;;11.40;90.10;;;;;;5074158;28;20489;-80
2023/01/14 03:49:37;;;;;;;5.28;1.33;;;11.40;90.10;;;;;;5072695;28;20028;-81
2023/01/14 03:52:42;;;;;;;4.05;1.17;;;11.40;90.10;;;;;;5073785;28;20028;-80
2023/01/14 03:55:28;;;;;;;5.60;1.10;;;11.40;90.10;;;;;;5072582;28;20024;-81
2023/01/14 03:58:01;;;;;;;5.88;1.30;;;11.40;90.10;;;;;;5073168;28;20106;-81
2023/01/14 04:00:40;;;;;;;4.40;1.25;;;11.40;90.10;;;;;;5074806;28;20078;-79
2023/01/14 04:03:09;;;;;;;4.65;1.48;;;11.40;90.10;;;;;;5074975;28;20012;-81
2023/01/14 04:05:35;;;;;;;5.55;1.23;;;11.40;90.10;;;;;;5072215;28;20021;-80
2023/01/14 04:08:02;;;;;;;5.15;1.52;;;11.40;90.10;;;;;;5071970;28;20025;-80
2023/01/14 04:10:27;;;;;;;6.80;1.70;;;11.40;90.10;;;;;;5072224;28;20036;-80
2023/01/14 04:15:37;;;;;;;3.88;1.30;;;11.40;90.10;;;;;;5074991;28;20108;-82
2023/01/14 04:18:02;;;;;;;5.30;1.30;;;11.40;90.10;;;;;;5075723;28;20060;-81
2023/01/14 04:20:28;;;;;;;4.88;1.40;;;11.40;90.10;;;;;;5074428;28;20024;-80
2023/01/14 04:22:53;;;;;;;4.90;1.40;;;11.40;90.10;;;;;;5072351;28;20021;-80
2023/01/14 04:25:19;;;;;;;5.78;1.60;;;11.40;90.10;;;;;;5072314;28;20025;-82
2023/01/14 04:27:44;;;;;;;7.82;1.73;;;11.40;90.10;;;;;;5075475;28;20092;-80
2023/01/14 04:30:10;;;;;;;4.45;1.20;;;11.40;90.10;;;;;;5074130;28;20025;-80
2023/01/14 04:32:36;;;;;;;4.95;1.55;;;11.40;90.10;;;;;;5075126;28;20028;-79
2023/01/14 04:35:03;;;;;;;5.18;1.20;;;11.40;90.10;;;;;;5073616;28;20036;-80
2023/01/14 04:37:28;;;;;;;6.40;1.10;;;11.40;90.00;;;;;;5071231;28;20033;-80
2023/01/14 04:39:54;;;;;;;4.68;1.48;;;11.40;90.10;;;;;;5072883;28;20515;-81
2023/01/14 04:42:28;;;;;;;3.95;1.20;;;11.40;90.10;;;;;;5072739;28;20025;-77
2023/01/14 04:45:00;;;;;;;4.20;1.13;;;11.40;90.10;;;;;;5072068;28;20445;-80
2023/01/14 04:47:27;;;;;;;4.90;1.45;;;11.40;90.10;;;;;;5072660;28;20025;-81
2023/01/14 04:49:52;;;;;;;5.75;1.58;;;11.40;90.10;;;;;;5071932;28;20064;-80
2023/01/14 04:52:18;;;;;;;5.55;1.40;;;11.40;90.10;;;;;;5072003;28;20032;-79
2023/01/14 04:54:44;;;;;;;6.75;1.77;;;11.40;90.10;;;;;;5071134;28;20396;-79
2023/01/14 04:57:09;;;;;;;6.80;1.55;;;11.40;90.10;;;;;;5073706;28;20032;-80
2023/01/14 04:59:35;;;;;;;5.60;1.40;;;11.40;90.10;;;;;;5076474;28;20047;-80
2023/01/14 05:02:00;;;;;;;4.88;1.50;;;11.30;90.10;;;;;;5073493;28;20080;-80
2023/01/14 05:04:26;;;;;;;5.82;1.40;;;11.40;90.10;;;;;;5071562;28;20499;-79
2023/01/14 05:06:53;;;;;;;6.13;1.77;;;11.40;90.10;;;;;;5071164;28;20024;-80
2023/01/14 05:09:18;;;;;;;4.57;1.27;;;11.40;90.00;;;;;;5071246;28;20115;-80
2023/01/14 05:11:44;;;;;;;5.95;1.65;;;11.40;90.00;;;;;;5077025;28;20107;-80
2023/01/14 05:14:09;;;;;;;7.53;2.10;;;11.40;90.00;;;;;;5076604;28;20020;-82
2023/01/14 05:16:35;;;;;;;6.85;1.67;;;11.40;89.90;;;;;;5077327;28;20017;-81
2023/01/14 05:19:00;;;;;;;4.15;1.50;;;11.40;89.90;;;;;;5078148;28;20024;-82
2023/01/14 05:21:26;;;;;;;6.00;1.83;;;11.40;89.80;;;;;;5078116;28;20051;-81
2023/01/14 05:23:51;;;;;;;6.25;1.70;;;11.40;89.80;;;;;;5079116;28;20078;-81
2023/01/14 05:26:17;;;;;;;4.75;1.45;;;11.30;90.00;;;;;;5083861;28;20048;-81
2023/01/14 05:28:42;;;;;;;6.78;2.10;;;11.40;90.00;;;;;;5074320;28;20060;-81
2023/01/14 05:31:08;;;;;;;8.48;1.90;;;11.40;90.00;;;;;;5076666;28;20032;-81
2023/01/14 05:33:33;;;;;;;4.65;1.67;;;11.30;90.00;;;;;;5076362;28;20024;-80
2023/01/14 05:36:00;;;;;;;4.95;1.45;;;11.40;90.00;;;;;;5076091;28;20028;-80
2023/01/14 05:38:26;;;;;;;7.07;1.83;;;11.40;90.00;;;;;;5079031;28;20064;-82
2023/01/14 05:40:52;;;;;;;8.52;2.00;;;11.40;90.00;;;;;;5078691;28;20028;-81
2023/01/14 05:46:12;;;;;;;5.80;1.55;;;11.30;90.00;;;;;;5077613;28;20024;-81
2023/01/14 05:48:38;;;;;;;7.57;1.90;;;11.30;90.00;;;;;;5075629;28;20025;-80
2023/01/14 05:51:05;;;;;;;5.32;1.65;;;11.30;90.00;;;;;;5076666;28;20028;-81
2023/01/14 05:53:32;;;;;;;5.03;1.60;;;11.40;90.20;;;;;;5078071;28;20020;-82
2023/01/14 05:55:58;;;;;;;6.82;1.92;;;11.40;90.00;;;;;;5077241;28;20028;-79
2023/01/14 05:58:24;;;;;;;7.25;1.73;;;11.40;90.00;;;;;;5076419;28;20543;-81
2023/01/14 06:06:33;;;;;;;6.20;2.00;;;11.40;90.00;;;;;;5078319;28;20050;-81
2023/01/14 06:09:04;;;;;;;4.78;1.52;;;11.30;90.00;;;;;;5077942;28;20032;-83
2023/01/14 06:11:33;;;;;;;6.40;2.10;;;11.40;90.00;;;;;;5077100;28;20028;-80
2023/01/14 06:14:00;;;;;;;5.63;1.70;;;11.30;90.00;;;;;;5077053;28;20100;-80
2023/01/14 06:16:28;;;;;;;6.45;1.73;;;11.30;90.00;;;;;;5075722;28;20031;-80
2023/01/14 06:18:55;;;;;;;7.13;2.05;;;11.30;90.00;;;;;;5076671;28;20051;-81
2023/01/14 06:21:25;;;;;;;7.38;2.28;;;11.40;90.00;;;;;;5077483;28;20465;-80
2023/01/14 06:23:51;;;;;;;6.40;2.10;;;11.30;89.90;;;;;;5076581;28;20431;-81
2023/01/14 06:26:18;;;;;;;5.57;1.80;;;11.30;90.00;;;;;;5075557;28;20077;-81
2023/01/14 06:28:44;;;;;;;6.47;1.80;;;11.30;90.00;;;;;;5075186;28;20043;-80
2023/01/14 06:31:15;;;;;;;6.65;1.95;;;11.30;90.00;;;;;;5076848;28;20020;-80
2023/01/14 06:33:42;;;;;;;6.30;2.10;;;11.40;90.00;;;;;;5075175;28;20396;-80
2023/01/14 06:36:09;;;;;;;6.10;1.90;;;11.30;89.80;;;;;;5075307;28;20056;-80
2023/01/14 06:38:35;;;;;;;6.38;1.90;;;11.30;89.80;;;;;;5074850;28;20059;-81
2023/01/14 06:41:02;;;;;;;7.03;1.90;;;11.40;89.80;;;;;;5072026;28;20021;-78
2023/01/14 06:43:27;;;;;;;7.75;1.75;;;11.30;89.80;;;;;;5068987;28;20024;-81
2023/01/14 06:45:57;;;;;;;5.70;1.83;;;11.30;89.90;;;;;;5069444;28;20031;-82
2023/01/14 06:48:24;;;;;;;6.13;1.85;;;11.30;89.90;;;;;;5070021;28;20031;-78
2023/01/14 06:50:50;;;;;;;5.45;1.50;;;11.30;89.90;;;;;;5070303;28;20033;-77
2023/01/14 06:53:16;;;;;;;9.63;1.92;;;11.30;89.80;;;;;;5069430;28;20034;-78
2023/01/14 06:55:42;;;;;;;7.07;2.03;;;11.30;89.90;;;;;;5068019;28;20546;-83
2023/01/14 06:58:08;;;;;;;7.72;2.15;;;11.30;89.80;;;;;;5069325;28;20036;-77
2023/01/14 07:00:33;;;;;;;7.05;1.63;;;11.30;89.80;;;;;;5068852;28;20049;-78
2023/01/14 07:02:59;;;;;;;6.95;2.00;;;11.30;89.80;;;;;;5068695;28;20031;-77
2023/01/14 07:05:24;;;;;;;6.60;1.60;;;11.30;89.80;;;;;;5069010;28;20082;-77
2023/01/14 07:07:50;;;;;;;8.85;2.20;;;11.30;89.70;;;;;;5065254;28;20025;-77
2023/01/14 07:10:16;;;;;;;6.05;1.70;;;11.30;89.80;;;;;;5068483;28;20553;-79
2023/01/14 07:12:50;;;;;;;6.82;1.98;;;11.30;89.70;;;;;;5068278;28;20843;-77
2023/01/14 07:15:18;;;;;;;5.82;1.60;;;11.30;89.70;;;;;;5068628;28;20032;-77
2023/01/14 07:17:48;;;;;;;5.47;1.75;;;11.30;89.30;;;;;;5067186;28;20020;-79
2023/01/14 07:20:15;;;;;;;8.10;1.85;;;11.30;89.40;;;;;;5047993;28;20025;-79
2023/01/14 07:22:40;;;;;;;7.93;2.03;;;11.30;89.50;;;;;;5049802;28;20024;-78
2023/01/14 07:25:07;;;;;;;7.22;2.10;;;11.30;89.50;;;;;;5048094;28;20377;-85
2023/01/14 07:27:32;;;;;;;6.35;1.50;;;11.30;89.50;;;;;;5048883;28;20509;-77
2023/01/14 07:29:58;;;;;;;7.70;1.83;;;11.30;89.50;;;;;;5049156;28;20151;-79
2023/01/14 07:32:24;;;;;;;6.28;1.77;;;11.30;89.20;;;;;;5047409;28;20064;-78
2023/01/14 07:34:50;;;;;;;5.53;1.75;;;11.30;89.30;;;;;;5048814;28;20029;-76
2023/01/14 07:37:15;;;;;;;5.38;1.70;;;11.40;89.50;;;;;;5047608;28;20389;-77
2023/01/14 07:39:41;;;;;;;7.30;1.85;;;11.30;89.50;;;;;;5047861;28;20021;-82
2023/01/14 07:42:06;;;;;;;6.97;2.00;;;11.30;89.50;;;;;;5048930;28;20040;-76
2023/01/14 07:44:31;;;;;;;6.45;1.80;;;11.30;89.50;;;;;;5047245;28;20448;-78
2023/01/14 07:46:57;;;;;;;7.03;1.73;;;11.30;89.50;;;;;;5047518;28;20056;-79
2023/01/14 07:49:24;;;;;;;11.20;2.70;;;11.30;89.00;;;;;;5047618;28;20051;-76
2023/01/14 07:51:50;;;;;;;6.13;1.77;;;11.40;89.10;;;;;;5047099;28;20025;-78
2023/01/14 07:54:17;;;;;;;6.63;1.92;;;11.30;88.80;;;;;;5049062;28;20025;-78
2023/01/14 07:56:42;;;;;;;6.80;1.83;;;11.30;88.50;;;;;;5049007;28;20485;-77
2023/01/14 07:59:08;;;;;;;6.63;1.85;;;11.30;88.50;;;;;;5047610;28;20033;-79
2023/01/14 08:01:34;;;;;;;5.53;1.95;;;11.30;88.40;;;;;;5047452;28;20051;-78
2023/01/14 08:04:00;;;;;;;9.10;1.85;;;11.30;88.70;;;;;;5048539;28;20025;-77
2023/01/14 08:06:26;;;;;;;7.22;1.85;;;11.30;88.60;;;;;;5048347;28;20530;-76
2023/01/14 08:08:51;;;;;;;7.45;1.80;;;11.30;88.70;;;;;;5048701;28;20381;-77
2023/01/14 08:11:17;;;;;;;7.57;2.10;;;11.30;89.00;;;;;;5046117;28;20036;-76
2023/01/14 08:13:43;;;;;;;6.32;1.98;;;11.30;89.10;;;;;;5047330;28;20052;-78
2023/01/14 08:16:09;;;;;;;6.18;1.85;;;11.30;89.10;;;;;;5046057;28;20083;-78
2023/01/14 08:18:35;;;;;;;5.13;1.45;;;11.30;88.30;;;;;;5047579;28;20017;-77
2023/01/14 08:21:04;;;;;;;6.53;1.77;;;11.30;88.30;;;;;;5047641;28;20021;-78
2023/01/14 08:23:30;;;;;;;6.20;1.88;;;11.30;88.30;;;;;;5046689;28;20025;-82
2023/01/14 08:26:05;;;;;;;6.35;1.70;;;11.30;88.70;;;;;;5046201;28;20429;-77
2023/01/14 08:28:30;;;;;;;6.57;1.40;;;11.30;88.70;;;;;;5045957;28;20123;-76
2023/01/14 08:31:16;;;;;;;5.25;1.30;;;11.30;88.30;;;;;;5059450;28;20132;-77
2023/01/14 08:33:43;;;;;;;6.25;1.77;;;11.30;88.50;;;;;;5067633;28;20040;-82
2023/01/14 08:36:15;;;;;;;6.25;1.45;;;11.30;88.50;;;;;;5066298;28;20055;-76
2023/01/14 08:38:41;;;;;;;;;;;11.30;88.50;;;;;;5066465;28;20060;-76
2023/01/14 08:41:10;;;;;;;7.95;1.92;;;11.30;88.20;;;;;;5066245;28;19908;-78
2023/01/14 08:43:37;;;;;;;6.65;1.90;;;11.30;88.50;;;;;;5066137;28;20029;-78
2023/01/14 08:46:04;;;;;;;6.30;1.70;;;11.30;88.20;;;;;;5071312;28;20024;-78
2023/01/14 08:48:29;;;;;;;7.35;1.70;;;11.30;88.30;;;;;;5071782;28;20507;-78
2023/01/14 08:51:01;;;;;;;7.10;1.60;;;11.30;88.50;;;;;;5071443;28;20036;-77
2023/01/14 08:53:29;;;;;;;6.65;1.48;;;11.30;88.70;;;;;;5072247;28;20020;-80
2023/01/14 08:55:58;;;;;;;6.63;1.73;;;11.30;88.70;;;;;;5071076;28;20039;-79
2023/01/14 08:58:25;;;;;;;5.82;1.50;;;11.30;88.30;;;;;;5070766;28;20078;-78
2023/01/14 09:00:58;;;;;;;7.70;1.90;;;11.30;88.20;;;;;;5070656;28;20150;-77
2023/01/14 09:03:25;;;;;;;7.07;1.52;;;11.30;88.50;;;;;;5070104;28;20028;-79
2023/01/14 09:05:58;;;;;;;5.75;1.73;;;11.30;87.90;;;;;;5070591;28;20032;-80
2023/01/14 09:17:04;;;;;;;5.25;1.38;;;11.30;88.30;;;;;;5060793;28;20060;-77
2023/01/14 09:19:32;;;;;;;4.50;1.30;;;11.30;88.30;;;;;;5070581;28;20537;-78
2023/01/14 09:21:58;;;;;;;6.43;1.90;;;11.30;88.60;;;;;;5071807;28;20064;-77
2023/01/14 09:24:23;;;;;;;5.82;1.73;;;11.30;88.00;;;;;;5069016;28;20585;-77
2023/01/14 09:26:49;;;;;;;5.72;1.52;;;11.30;88.20;;;;;;5069992;28;20480;-78
2023/01/14 09:29:14;;;;;;;7.03;1.85;;;11.30;88.00;;;;;;5070456;28;20028;-78
2023/01/14 09:31:40;;;;;;;6.38;1.60;;;11.30;88.00;;;;;;5069661;28;20036;-82
2023/01/14 09:34:05;;;;;;;4.55;1.52;;;11.30;88.20;;;;;;5069344;28;20027;-77
2023/01/14 09:36:31;;;;;;;6.45;1.77;;;11.30;88.30;;;;;;5069616;28;20032;-79
2023/01/14 09:38:57;;;;;;;5.22;1.30;;;11.30;88.30;;;;;;5070685;28;20468;-82
2023/01/14 09:41:27;;;;;;;5.18;1.40;;;11.30;88.20;;;;;;5071052;28;20028;-76
2023/01/14 09:43:53;;;;;;;6.97;1.80;;;11.30;88.40;;;;;;5070665;28;20486;-77
2023/01/14 09:46:25;;;;;;;5.88;1.60;;;11.30;88.20;;;;;;5070962;28;20048;-77
2023/01/14 09:48:51;;;;;;;;;;;11.30;88.60;;;;;;5071397;28;20032;-76
2023/01/14 09:51:46;;;;;;;4.90;1.40;;;11.30;88.30;;;;;;5069354;28;19905;-79
2023/01/14 09:54:21;;;;;;;5.95;1.63;;;11.30;88.30;;;;;;5070606;28;20042;-76
2023/01/14 09:57:04;;;;;;;5.55;1.52;;;11.30;88.40;;;;;;5067759;28;20384;-81
2023/01/14 09:59:55;;;;;;;5.03;1.58;;;11.30;88.50;;;;;;5069470;28;20025;-77
2023/01/14 10:02:32;;;;;;;5.40;1.40;;;11.30;88.30;;;;;;5068071;28;20062;-77
2023/01/14 10:05:04;;;;;;;4.63;1.30;;;11.20;88.40;;;;;;5068916;28;20032;-78
2023/01/14 10:07:30;;;;;;;5.38;1.50;;;11.30;88.40;;;;;;5069280;28;20086;-76
2023/01/14 10:09:58;;;;;;;5.10;1.60;;;11.30;88.40;;;;;;5070748;28;20404;-77
2023/01/14 10:12:30;;;;;;;5.55;1.58;;;11.30;88.60;;;;;;5068933;28;20032;-76
2023/01/14 10:14:55;;;;;;;;;;;11.30;88.50;;;;;;5071253;28;20025;-76
2023/01/14 10:17:25;;;;;;;6.55;1.55;;;11.30;88.60;;;;;;5069512;28;19919;-75
2023/01/14 10:19:52;;;;;;;3.78;1.40;;;11.30;88.70;;;;;;5071078;28;20021;-75
2023/01/14 10:22:36;;;;;;;5.65;1.52;;;11.30;88.50;;;;;;5069291;28;20047;-76
2023/01/14 10:25:04;;;;;;;4.25;1.40;;;11.30;88.70;;;;;;5069948;28;20025;-75
2023/01/14 10:27:33;;;;;;;6.20;1.70;;;11.30;88.60;;;;;;5065819;28;20035;-78
2023/01/14 10:30:18;;;;;;;5.45;1.55;;;11.30;88.70;;;;;;5065717;28;20041;-75
2023/01/14 10:32:45;;;;;;;4.65;1.25;;;11.30;88.50;;;;;;5061082;28;20035;-77
2023/01/14 10:35:16;;;;;;;4.95;1.35;;;11.30;88.70;;;;;;5068188;28;20033;-76
2023/01/14 10:37:41;;;;;;;4.57;1.55;;;11.30;88.50;;;;;;5067942;28;20597;-79
2023/01/14 10:40:19;;;;;;;6.45;1.63;;;11.30;88.40;;;;;;5069461;28;20021;-77
2023/01/14 10:42:45;;;;;;;3.97;1.25;;;11.30;88.50;;;;;;5068034;28;20017;-77
2023/01/14 10:45:11;;;;;;;4.72;1.23;;;11.30;88.50;;;;;;5068193;28;20031;-76
2023/01/14 10:47:37;;;;;;;4.45;1.30;;;11.30;88.40;;;;;;5069784;28;20032;-75
2023/01/14 10:50:15;;;;;;;4.35;1.33;;;11.30;88.40;;;;;;5069659;28;20094;-78
2023/01/14 10:52:42;;;;;;;5.95;1.80;;;11.20;88.60;;;;;;5068493;28;20805;-78
2023/01/14 10:55:11;;;;;;;4.43;1.33;;;11.30;88.70;;;;;;5068539;28;20028;-79
2023/01/14 10:58:08;;;;;;;6.35;1.70;;;11.30;88.60;;;;;;5068042;28;20036;-75
2023/01/14 11:00:43;;;;;;;4.40;1.40;;;11.30;88.70;;;;;;5060093;28;20028;-75
2023/01/14 11:03:20;;;;;;;4.05;1.25;;;11.30;88.60;;;;;;5068163;28;20107;-75
2023/01/14 11:06:00;;;;;;;5.22;1.48;;;11.30;88.60;;;;;;5067975;28;20040;-78
2023/01/14 11:08:46;;;;;;;6.22;1.85;;;11.30;88.60;;;;;;5083988;28;20074;-77
2023/01/14 11:11:15;;;;;;;4.63;1.40;;;11.30;88.50;;;;;;5058085;28;20043;-76
2023/01/14 11:13:44;;;;;;;4.53;1.35;;;11.30;88.60;;;;;;5067449;28;20451;-75
2023/01/14 11:16:21;;;;;;;3.60;1.23;;;11.30;88.60;;;;;;5067675;28;20130;-77
2023/01/14 11:18:59;;;;;;;5.82;1.42;;;11.30;88.70;;;;;;5067161;28;20082;-76
2023/01/14 11:21:27;;;;;;;4.20;1.20;;;11.20;88.60;;;;;;5067729;28;20032;-82
2023/01/14 11:24:08;;;;;;;5.63;1.65;;;11.30;88.50;;;;;;5084288;28;20025;-76
2023/01/14 11:26:37;;;;;;;4.30;1.30;;;11.30;88.60;;;;;;5067559;28;20091;-75
2023/01/14 11:29:15;;;;;;;4.18;1.33;;;11.30;88.60;;;;;;5067455;28;20040;-75
2023/01/14 11:31:43;;;;;;;5.78;1.30;;;11.30;88.70;;;;;;5068923;28;20021;-76
2023/01/14 11:34:40;;;;;;;4.63;1.42;;;11.30;88.70;;;;;;5067302;28;20028;-79
2023/01/14 11:37:18;;;;;;;4.88;1.33;;;11.30;88.80;;;;;;5084566;28;20024;-77
2023/01/14 11:40:00;;;;;;;4.97;1.50;;;11.30;88.80;;;;;;5067750;28;20016;-77
2023/01/14 11:42:34;;;;;;;4.60;1.25;;;11.30;89.00;;;;;;5067993;28;20102;-77
2023/01/14 11:45:00;;;;;;;3.72;1.20;;;11.30;88.90;;;;;;5067277;28;20028;-84
2023/01/14 11:47:27;;;;;;;6.88;1.52;;;11.30;88.80;;;;;;5067545;28;20028;-77
2023/01/14 11:50:16;;;;;;;5.32;1.35;;;11.30;88.90;;;;;;5067475;28;20032;-76
2023/01/14 11:53:15;;;;;;;4.20;1.30;;;11.30;88.80;;;;;;5067252;28;20041;-82
2023/01/14 11:55:41;;;;;;;6.57;1.27;;;11.30;88.80;;;;;;5068434;28;20028;-83
2023/01/14 11:58:12;;;;;;;6.45;1.55;;;11.30;88.90;;;;;;5068867;28;20035;-77
2023/01/14 12:00:40;;;;;;;3.78;1.10;;;11.30;88.90;;;;;;5067461;28;20025;-79
2023/01/14 12:03:11;;;;;;;4.25;1.20;;;11.30;88.90;;;;;;5068948;28;20061;-77
2023/01/14 12:05:39;;;;;;;4.67;1.70;;;11.30;88.90;;;;;;5067338;28;20116;-77
2023/01/14 12:08:15;;;;;;;5.28;1.38;;;11.30;88.90;;;;;;5067296;28;20705;-80
2023/01/14 12:10:45;;;;;;;3.30;1.30;;;11.30;89.00;;;;;;5067447;28;20040;-77
2023/01/14 12:19:02;;;;;;;3.58;1.10;;;11.30;88.90;;;;;;5070350;28;20408;-78
2023/01/14 12:21:34;;;;;;;4.53;1.55;;;11.30;88.90;;;;;;5071653;28;20166;-79
2023/01/14 12:24:22;;;;;;;4.93;1.30;;;11.30;89.00;;;;;;5072059;28;20122;-77
2023/01/14 12:26:49;;;;;;;4.05;1.40;;;11.30;89.00;;;;;;5071307;28;20020;-77
2023/01/14 12:29:26;;;;;;;3.33;1.00;;;11.30;89.00;;;;;;5071162;28;20667;-83
2023/01/14 12:32:02;;;;;;;4.13;1.25;;;11.30;89.00;;;;;;5072166;28;20392;-79
2023/01/14 12:34:40;;;;;;;4.72;1.38;;;11.30;89.10;;;;;;5071902;28;20029;-79
2023/01/14 12:37:24;;;;;;;4.97;1.20;;;11.30;89.00;;;;;;5072248;28;20032;-83
2023/01/14 12:45:44;;;;;;;4.25;1.30;;;11.30;89.10;;;;;;5073121;28;20214;-81
2023/01/14 12:48:18;;;;;;;3.40;1.10;;;11.30;89.10;;;;;;5070200;28;20052;-79
2023/01/14 12:50:46;;;;;;;3.45;1.20;;;11.30;89.10;;;;;;5071219;28;20025;-77
2023/01/14 12:53:23;;;;;;;4.68;1.23;;;11.30;89.20;;;;;;5073043;28;20028;-79
2023/01/14 12:55:51;;;;;;;3.50;1.25;;;11.20;89.10;;;;;;5071123;28;20043;-76
2023/01/14 12:58:23;;;;;;;5.95;1.42;;;11.30;89.20;;;;;;5070299;28;20627;-76
2023/01/14 13:00:51;;;;;;;5.10;1.25;;;11.30;89.10;;;;;;5071179;28;20020;-76
2023/01/14 13:03:40;;;;;;;3.25;1.00;;;11.30;89.10;;;;;;5071460;28;20055;-77
2023/01/14 13:06:35;;;;;;;3.60;1.10;;;11.30;89.20;;;;;;5064484;28;20413;-75
2023/01/14 13:09:03;;;;;;;3.85;1.30;;;11.30;89.20;;;;;;5052576;28;20545;-77
2023/01/14 13:11:43;;;;;;;2.90;1.10;;;11.30;89.20;;;;;;5050668;28;20033;-76
2023/01/14 13:14:22;;;;;;;4.45;1.20;;;11.30;89.20;;;;;;5064772;28;20020;-80
2023/01/14 13:16:48;;;;;;;4.30;1.27;;;11.30;89.20;;;;;;5062970;28;20025;-80
2023/01/14 13:19:26;;;;;;;3.13;1.00;;;11.30;89.30;;;;;;5072461;28;20021;-78
2023/01/14 13:22:04;;;;;;;4.82;1.48;;;11.30;89.30;;;;;;5070957;28;20016;-77
2023/01/14 13:24:46;;;;;;;3.40;1.17;;;11.30;89.30;;;;;;5070785;28;20477;-76
2023/01/14 13:27:35;;;;;;;2.95;1.00;;;11.30;89.20;;;;;;5070939;28;20051;-79
2023/01/14 13:30:20;;;;;;;6.07;1.30;;;11.30;89.40;;;;;;5070137;28;20028;-78
2023/01/14 13:32:59;;;;;;;6.38;1.33;;;11.30;89.60;;;;;;5057237;28;20036;-77
2023/01/14 13:35:27;;;;;;;6.25;1.13;;;11.30;89.50;;;;;;5070130;28;20024;-78
2023/01/14 13:37:53;;;;;;;5.70;0.95;;;11.30;89.50;;;;;;5072010;28;20487;-80
2023/01/14 13:40:22;;;;;;;3.45;1.05;;;11.30;89.50;;;;;;5070006;28;20024;-77
2023/01/14 13:43:00;;;;;;;3.80;1.10;;;11.30;89.40;;;;;;5070833;28;20048;-78
2023/01/14 13:45:28;;;;;;;3.50;1.13;;;11.30;89.50;;;;;;5069648;28;20021;-76